Time;durP1;ratioP1;P1;durP2;ratioP2;P2;SDS_P1;SDS_P2;PMS_P1;PMS_P2;Temp;Humidity;BMP_temperature;BMP_pressure;BME280_temperature;BME280_humidity;BME280_pressure;Samples;Min_cycle;Max_cycle;Signal;HPM_P1;HPM_P2
2023/03/05 00:01:13;;;;;;;11.13;3.63;;;7.10;99.90;;;;;;5113218;28;20203;-69
2023/03/05 00:03:38;;;;;;;4.17;2.87;;;7.20;99.90;;;;;;5113133;28;20171;-69
2023/03/05 00:06:05;;;;;;;7.37;2.90;;;7.30;99.90;;;;;;5113269;28;20256;-69
2023/03/05 00:08:31;;;;;;;7.00;2.93;;;7.30;99.90;;;;;;5112983;28;20178;-69
2023/03/05 00:10:57;;;;;;;5.97;3.07;;;7.30;99.90;;;;;;5113141;28;20167;-69
2023/03/05 00:13:23;;;;;;;8.13;3.37;;;7.40;99.90;;;;;;5115003;28;20204;-69
2023/03/05 00:15:49;;;;;;;6.73;3.37;;;7.50;99.90;;;;;;5116774;28;20179;-70
2023/03/05 00:18:15;;;;;;;7.33;4.20;;;7.50;99.90;;;;;;5116543;28;20614;-70
2023/03/05 00:20:40;;;;;;;8.17;3.90;;;7.50;99.90;;;;;;5116844;28;20175;-70
2023/03/05 00:23:06;;;;;;;6.37;4.10;;;7.50;99.90;;;;;;5116379;28;21347;-70
2023/03/05 00:25:34;;;;;;;4.43;3.80;;;7.40;99.90;;;;;;5116449;28;20270;-69
2023/03/05 00:28:00;;;;;;;5.77;3.23;;;7.30;99.90;;;;;;5116168;28;20260;-69
2023/03/05 00:30:25;;;;;;;6.43;3.93;;;7.40;99.90;;;;;;5116792;28;20207;-69
2023/03/05 00:32:51;;;;;;;5.70;4.00;;;7.40;99.90;;;;;;5116426;28;20179;-69
2023/03/05 00:35:18;;;;;;;8.67;4.40;;;7.40;99.90;;;;;;5116302;28;20174;-70
2023/03/05 00:37:43;;;;;;;8.77;3.87;;;7.30;99.90;;;;;;5116266;28;20162;-68
2023/03/05 00:40:10;;;;;;;6.40;3.87;;;7.30;99.90;;;;;;5116413;28;20174;-69
2023/03/05 00:42:37;;;;;;;6.73;3.87;;;7.20;99.90;;;;;;5115924;28;20155;-69
2023/03/05 00:45:05;;;;;;;6.57;4.47;;;7.10;99.90;;;;;;5116417;28;20194;-68
2023/03/05 00:47:31;;;;;;;10.60;4.10;;;7.10;99.90;;;;;;5115982;28;20210;-69
2023/03/05 00:49:56;;;;;;;6.07;3.90;;;7.10;99.90;;;;;;5115923;28;20164;-69
2023/03/05 00:52:22;;;;;;;8.90;3.90;;;7.10;99.90;;;;;;5115966;28;20203;-68
2023/03/05 00:54:47;;;;;;;6.70;4.17;;;6.90;99.90;;;;;;5115977;28;20172;-69
2023/03/05 00:57:13;;;;;;;8.03;3.83;;;6.90;99.90;;;;;;5115659;28;20167;-69
2023/03/05 00:59:38;;;;;;;6.07;3.90;;;6.90;99.90;;;;;;5115554;28;20166;-69
2023/03/05 01:02:04;;;;;;;8.63;3.77;;;6.80;99.90;;;;;;5115724;28;20195;-68
2023/03/05 01:04:30;;;;;;;9.23;4.50;;;6.90;99.90;;;;;;5115797;28;20170;-68
2023/03/05 01:06:55;;;;;;;8.83;4.27;;;6.80;99.90;;;;;;5097253;28;20215;-68
2023/03/05 01:09:24;;;;;;;5.53;4.30;;;6.80;99.90;;;;;;5115680;28;20178;-70
2023/03/05 01:11:52;;;;;;;9.70;4.60;;;6.70;99.90;;;;;;5115291;28;20638;-70
2023/03/05 01:14:19;;;;;;;4.90;3.77;;;6.70;99.90;;;;;;5115771;28;20171;-68
2023/03/05 01:16:45;;;;;;;8.27;4.30;;;6.70;99.90;;;;;;5115576;28;20160;-70
2023/03/05 01:19:12;;;;;;;9.67;4.53;;;6.80;99.90;;;;;;5115626;28;20243;-68
2023/03/05 01:21:37;;;;;;;6.10;4.23;;;6.70;99.90;;;;;;5115726;28;20225;-69
2023/03/05 01:24:04;;;;;;;8.90;4.60;;;6.70;99.90;;;;;;5114270;28;20219;-69
2023/03/05 01:26:29;;;;;;;5.47;4.60;;;6.80;99.90;;;;;;5114808;28;20285;-69
2023/03/05 01:28:55;;;;;;;9.83;5.00;;;6.80;99.90;;;;;;5115351;28;20183;-68
2023/03/05 01:31:21;;;;;;;7.60;4.43;;;6.90;99.90;;;;;;5115283;28;20197;-69
2023/03/05 01:33:47;;;;;;;8.63;4.17;;;6.90;99.90;;;;;;5115626;28;20572;-69
2023/03/05 01:36:14;;;;;;;9.67;4.67;;;6.90;99.90;;;;;;5115187;28;20206;-68
2023/03/05 01:38:42;;;;;;;8.67;4.93;;;6.80;99.90;;;;;;5115355;28;20210;-69
2023/03/05 01:41:08;;;;;;;9.07;4.70;;;6.90;99.90;;;;;;5114979;28;20176;-69
2023/03/05 01:43:34;;;;;;;9.60;5.10;;;6.90;99.90;;;;;;5115147;28;20182;-69
2023/03/05 01:46:12;;;;;;;8.67;4.77;;;6.90;99.90;;;;;;5115046;28;20210;-69
2023/03/05 01:48:41;;;;;;;4.83;4.00;;;7.00;99.90;;;;;;5115066;28;20177;-69
2023/03/05 01:51:07;;;;;;;8.77;4.10;;;7.00;99.90;;;;;;5115500;28;20175;-69
2023/03/05 01:53:32;;;;;;;9.47;4.60;;;7.00;99.90;;;;;;5114853;28;20258;-67
2023/03/05 01:55:58;;;;;;;6.23;4.50;;;6.90;99.90;;;;;;5114398;28;20233;-70
2023/03/05 01:58:24;;;;;;;8.27;3.83;;;6.90;99.90;;;;;;5096606;28;20167;-68
2023/03/05 02:00:52;;;;;;;5.20;3.73;;;7.00;99.90;;;;;;5114630;28;20195;-69
2023/03/05 02:03:19;;;;;;;8.63;4.50;;;6.90;99.90;;;;;;5114833;28;20198;-69
2023/03/05 02:05:45;;;;;;;7.10;4.30;;;6.90;99.90;;;;;;5114484;28;20203;-68
2023/03/05 02:08:13;;;;;;;6.50;4.30;;;6.80;99.90;;;;;;5114685;28;20699;-68
2023/03/05 02:10:43;;;;;;;7.57;4.00;;;6.90;99.90;;;;;;5114333;28;20365;-68
2023/03/05 02:13:13;;;;;;;10.00;4.53;;;6.80;99.90;;;;;;5114669;28;20172;-69
2023/03/05 02:15:40;;;;;;;7.67;4.73;;;6.90;99.90;;;;;;5114613;28;20167;-68
2023/03/05 02:18:07;;;;;;;11.43;4.70;;;6.90;99.90;;;;;;5114423;28;20167;-69
2023/03/05 02:20:55;;;;;;;6.73;3.70;;;6.90;99.90;;;;;;5114579;28;20253;-69
2023/03/05 02:23:25;;;;;;;6.13;3.97;;;6.90;99.90;;;;;;5113865;28;20256;-69
2023/03/05 02:25:52;;;;;;;9.20;4.03;;;6.90;99.90;;;;;;5114071;28;20203;-69
2023/03/05 02:28:27;;;;;;;9.23;4.17;;;6.80;99.90;;;;;;5114241;28;20183;-69
2023/03/05 02:30:53;;;;;;;5.53;3.70;;;6.70;99.90;;;;;;5114278;28;20317;-69
2023/03/05 02:33:19;;;;;;;10.47;4.37;;;6.50;99.90;;;;;;5114180;28;20218;-69
2023/03/05 02:35:45;;;;;;;11.30;4.50;;;6.50;99.90;;;;;;5113919;28;20267;-69
2023/03/05 02:38:12;;;;;;;9.03;3.97;;;6.40;99.90;;;;;;5113665;28;20174;-70
2023/03/05 02:40:38;;;;;;;7.30;4.30;;;6.40;99.90;;;;;;5113967;28;20175;-69
2023/03/05 02:43:04;;;;;;;6.10;4.10;;;6.40;99.90;;;;;;5114072;28;20167;-69
2023/03/05 02:45:30;;;;;;;6.77;4.17;;;6.30;99.90;;;;;;5113756;28;20633;-69
2023/03/05 02:47:55;;;;;;;5.87;4.17;;;6.30;99.90;;;;;;5113926;28;20703;-68
2023/03/05 02:50:21;;;;;;;9.90;4.43;;;6.40;99.90;;;;;;5113914;28;20163;-69
2023/03/05 02:52:47;;;;;;;10.47;4.90;;;6.40;99.90;;;;;;5113496;28;20209;-68
2023/03/05 02:55:13;;;;;;;9.60;4.77;;;6.40;99.90;;;;;;5113714;28;20255;-69
2023/03/05 02:57:38;;;;;;;8.57;4.77;;;6.40;99.90;;;;;;5113881;28;20164;-69
2023/03/05 03:00:05;;;;;;;8.30;4.83;;;6.30;99.90;;;;;;5113801;28;20620;-69
2023/03/05 03:02:31;;;;;;;12.23;5.60;;;6.40;99.90;;;;;;5113985;28;20175;-70
2023/03/05 03:04:57;;;;;;;8.10;4.90;;;6.40;99.90;;;;;;5113696;28;20174;-68
2023/03/05 03:07:22;;;;;;;7.47;5.20;;;6.30;99.90;;;;;;5113193;28;20605;-69
2023/03/05 03:09:48;;;;;;;8.87;5.07;;;6.30;99.90;;;;;;5113767;28;20171;-68
2023/03/05 03:12:14;;;;;;;7.40;5.07;;;6.30;99.90;;;;;;5113813;28;20186;-69
2023/03/05 03:14:41;;;;;;;12.07;5.70;;;6.30;99.90;;;;;;5113653;28;20167;-69
2023/03/05 03:17:12;;;;;;;7.67;5.97;;;6.30;99.90;;;;;;5113573;28;20163;-68
2023/03/05 03:19:38;;;;;;;11.67;5.70;;;6.40;99.90;;;;;;5113619;28;20245;-68
2023/03/05 03:22:05;;;;;;;8.30;5.87;;;6.40;99.90;;;;;;5112876;28;20163;-69
2023/03/05 03:24:31;;;;;;;9.33;6.10;;;6.50;99.90;;;;;;5113654;28;20179;-68
2023/03/05 03:26:57;;;;;;;10.10;5.70;;;6.50;99.90;;;;;;5113350;28;20203;-69
2023/03/05 03:29:22;;;;;;;11.03;5.77;;;6.50;99.90;;;;;;5113483;28;20189;-69
2023/03/05 03:31:49;;;;;;;11.47;5.43;;;6.60;99.90;;;;;;5113386;28;20167;-68
2023/03/05 03:34:15;;;;;;;10.03;5.40;;;6.60;99.90;;;;;;5113439;28;20190;-68
2023/03/05 03:36:42;;;;;;;8.97;5.17;;;6.50;99.90;;;;;;5112930;28;20167;-68
2023/03/05 03:39:10;;;;;;;9.37;5.17;;;6.40;99.90;;;;;;5113335;28;20179;-68
2023/03/05 03:41:41;;;;;;;9.13;4.77;;;6.30;99.90;;;;;;5113369;28;20167;-68
2023/03/05 03:44:07;;;;;;;7.73;4.90;;;6.30;99.90;;;;;;5113245;28;20262;-68
2023/03/05 03:46:34;;;;;;;7.43;5.53;;;6.20;99.90;;;;;;5112991;28;20219;-68
2023/03/05 03:49:00;;;;;;;10.80;4.87;;;6.20;99.90;;;;;;5116616;28;20181;-69
2023/03/05 03:51:26;;;;;;;10.40;5.50;;;6.20;99.90;;;;;;5098664;28;20182;-69
2023/03/05 03:53:52;;;;;;;10.70;5.50;;;6.30;99.90;;;;;;5117150;28;20178;-68
2023/03/05 03:56:17;;;;;;;6.47;5.53;;;6.40;99.90;;;;;;5117217;28;20183;-68
2023/03/05 03:58:43;;;;;;;11.83;5.87;;;6.40;99.90;;;;;;5117201;28;20646;-69
2023/03/05 04:01:09;;;;;;;8.53;5.60;;;6.40;99.90;;;;;;5117000;28;20187;-68
2023/03/05 04:03:35;;;;;;;9.43;5.50;;;6.40;99.90;;;;;;5116893;28;20532;-68
2023/03/05 04:06:00;;;;;;;9.03;5.83;;;6.40;99.90;;;;;;5116552;28;20666;-68
2023/03/05 04:08:26;;;;;;;10.70;5.97;;;6.30;99.90;;;;;;5116957;28;20171;-70
2023/03/05 04:10:52;;;;;;;10.70;5.67;;;6.30;99.90;;;;;;5116674;28;20213;-69
2023/03/05 04:13:18;;;;;;;8.90;5.40;;;6.40;99.90;;;;;;5116825;28;20180;-67
2023/03/05 04:15:43;;;;;;;8.33;5.73;;;6.20;99.90;;;;;;5116603;28;20571;-69
2023/03/05 04:18:10;;;;;;;9.57;5.53;;;6.30;99.90;;;;;;5116297;28;20172;-68
2023/03/05 04:20:35;;;;;;;21.97;7.03;;;6.30;99.90;;;;;;5116261;28;20163;-69
2023/03/05 04:23:01;;;;;;;11.93;6.40;;;6.20;99.90;;;;;;5116519;28;20686;-68
2023/03/05 04:25:27;;;;;;;8.73;5.70;;;6.20;99.90;;;;;;5116389;28;20240;-69
2023/03/05 04:27:52;;;;;;;15.20;6.50;;;6.20;99.90;;;;;;5116432;28;20168;-68
2023/03/05 04:30:18;;;;;;;8.70;5.90;;;5.90;99.90;;;;;;5116472;28;20174;-69
2023/03/05 04:32:44;;;;;;;9.60;6.20;;;6.00;99.90;;;;;;5116175;28;20266;-69
2023/03/05 04:35:10;;;;;;;9.67;6.87;;;6.10;99.90;;;;;;5115915;28;20175;-69
2023/03/05 04:37:35;;;;;;;12.97;7.00;;;6.20;99.90;;;;;;5116417;28;20732;-68
2023/03/05 04:40:01;;;;;;;14.67;7.80;;;6.20;99.90;;;;;;5116229;28;20237;-70
2023/03/05 04:42:26;;;;;;;9.73;7.43;;;6.20;99.90;;;;;;5116312;28;20246;-68
2023/03/05 04:44:52;;;;;;;14.20;8.20;;;6.40;99.90;;;;;;5116087;28;20645;-68
2023/03/05 04:47:18;;;;;;;10.67;8.10;;;6.30;99.90;;;;;;5116005;28;20218;-69
2023/03/05 04:49:44;;;;;;;17.80;7.73;;;6.30;99.90;;;;;;5115497;28;20172;-70
2023/03/05 04:52:11;;;;;;;11.40;7.90;;;6.40;99.90;;;;;;5116202;28;20175;-68
2023/03/05 04:54:37;;;;;;;11.10;8.07;;;6.40;99.90;;;;;;5115948;28;20181;-68
2023/03/05 04:57:03;;;;;;;9.50;8.50;;;6.30;99.90;;;;;;5115877;28;20266;-68
2023/03/05 04:59:28;;;;;;;14.27;8.90;;;6.40;99.90;;;;;;5115794;28;20171;-69
2023/03/05 05:01:54;;;;;;;11.37;8.60;;;6.40;99.90;;;;;;5115704;28;20198;-69
2023/03/05 05:04:20;;;;;;;16.53;9.90;;;6.30;99.90;;;;;;5115193;28;20264;-69
2023/03/05 05:06:46;;;;;;;14.03;9.10;;;6.30;99.90;;;;;;5115145;28;20291;-68
2023/03/05 05:09:11;;;;;;;12.27;8.93;;;6.30;99.90;;;;;;5115977;28;20178;-68
2023/03/05 05:11:38;;;;;;;13.70;8.80;;;6.20;99.90;;;;;;5115290;28;20175;-68
2023/03/05 05:14:03;;;;;;;13.43;9.57;;;6.20;99.90;;;;;;5115678;28;20159;-67
2023/03/05 05:16:29;;;;;;;17.30;9.90;;;6.20;99.90;;;;;;5115175;28;20534;-68
2023/03/05 05:18:55;;;;;;;17.67;10.63;;;6.20;99.90;;;;;;5114927;28;20224;-68
2023/03/05 05:21:20;;;;;;;14.33;10.20;;;6.30;99.90;;;;;;5115207;28;20163;-68
2023/03/05 05:23:46;;;;;;;15.13;11.17;;;6.30;99.90;;;;;;5115281;28;20246;-68
2023/03/05 05:26:13;;;;;;;18.07;10.40;;;6.20;99.90;;;;;;5115387;28;20205;-68
2023/03/05 05:28:41;;;;;;;15.90;10.77;;;6.20;99.90;;;;;;5115448;28;20167;-68
2023/03/05 05:31:09;;;;;;;16.80;11.10;;;6.30;99.90;;;;;;5115300;28;20205;-68
2023/03/05 05:33:35;;;;;;;15.30;10.93;;;6.30;99.90;;;;;;5114771;28;20185;-68
2023/03/05 05:36:06;;;;;;;11.27;9.97;;;6.30;99.90;;;;;;5115134;28;20566;-68
2023/03/05 05:38:32;;;;;;;14.00;11.30;;;6.10;99.90;;;;;;5115007;28;20164;-68
2023/03/05 05:41:17;;;;;;;16.80;10.43;;;6.10;99.90;;;;;;5115068;28;20163;-68
2023/03/05 05:43:43;;;;;;;16.17;10.70;;;6.10;99.90;;;;;;5114298;28;20179;-68
2023/03/05 05:46:13;;;;;;;17.00;10.63;;;6.00;99.90;;;;;;5114322;28;20199;-67
2023/03/05 05:48:39;;;;;;;16.07;10.90;;;6.00;99.90;;;;;;5114718;28;20274;-67
2023/03/05 05:51:10;;;;;;;15.80;10.67;;;6.00;99.90;;;;;;5114888;28;20254;-67
2023/03/05 05:53:36;;;;;;;14.27;10.17;;;6.00;99.90;;;;;;5114847;28;20183;-69
2023/03/05 05:56:06;;;;;;;18.33;10.63;;;6.00;99.90;;;;;;5114477;28;20186;-68
2023/03/05 05:58:32;;;;;;;14.00;10.10;;;6.00;99.90;;;;;;5114629;28;20258;-68
2023/03/05 06:00:58;;;;;;;19.63;11.17;;;5.80;99.90;;;;;;5114267;28;20212;-68
2023/03/05 06:03:26;;;;;;;15.70;10.00;;;5.80;99.90;;;;;;5114490;28;20202;-68
2023/03/05 06:05:52;;;;;;;13.73;9.90;;;5.80;99.90;;;;;;5114446;28;20713;-68
2023/03/05 06:08:18;;;;;;;16.20;10.93;;;5.70;99.90;;;;;;5114324;28;20324;-68
2023/03/05 06:10:44;;;;;;;13.80;9.93;;;5.80;99.90;;;;;;5113810;28;20167;-68
2023/03/05 06:13:09;;;;;;;13.70;10.07;;;5.80;99.90;;;;;;5114032;28;20171;-67
2023/03/05 06:15:35;;;;;;;14.67;10.07;;;5.80;99.90;;;;;;5113903;28;20244;-69
2023/03/05 06:18:00;;;;;;;14.53;10.80;;;5.80;99.90;;;;;;5114192;28;20167;-69
2023/03/05 06:20:27;;;;;;;18.50;10.97;;;5.80;99.90;;;;;;5113993;28;20206;-68
2023/03/05 06:22:53;;;;;;;16.87;10.97;;;5.90;99.90;;;;;;5114001;28;20218;-69
2023/03/05 06:25:19;;;;;;;17.60;11.40;;;5.90;99.90;;;;;;5113863;28;20171;-68
2023/03/05 06:27:45;;;;;;;15.30;10.73;;;5.90;99.90;;;;;;5114264;28;20301;-68
2023/03/05 06:30:11;;;;;;;15.80;11.23;;;5.90;99.90;;;;;;5113721;28;20573;-67
2023/03/05 06:32:37;;;;;;;14.97;11.00;;;5.80;99.90;;;;;;5114090;28;20175;-68
2023/03/05 06:35:03;;;;;;;16.87;10.67;;;5.80;99.90;;;;;;5113988;28;20188;-68
2023/03/05 06:37:28;;;;;;;17.93;11.27;;;5.70;99.90;;;;;;5113877;28;20179;-67
2023/03/05 06:39:54;;;;;;;17.23;11.13;;;5.70;99.90;;;;;;5113512;28;20516;-68
2023/03/05 06:42:20;;;;;;;13.90;11.57;;;5.70;99.90;;;;;;5113726;28;20171;-68
2023/03/05 06:44:46;;;;;;;12.97;10.77;;;5.80;99.90;;;;;;5113560;28;20234;-67
2023/03/05 06:47:11;;;;;;;16.07;11.47;;;5.90;99.90;;;;;;5113739;28;20726;-68
2023/03/05 06:49:38;;;;;;;15.43;11.10;;;5.90;99.90;;;;;;5113168;28;20163;-68
2023/03/05 06:52:04;;;;;;;15.97;10.77;;;5.90;99.90;;;;;;5113725;28;20206;-66
2023/03/05 06:54:30;;;;;;;17.47;10.47;;;6.00;99.90;;;;;;5113442;28;20207;-68
2023/03/05 06:56:56;;;;;;;12.00;9.80;;;6.10;99.90;;;;;;5113496;28;20191;-68
2023/03/05 06:59:22;;;;;;;14.90;10.83;;;6.00;99.90;;;;;;5113198;28;20171;-68
2023/03/05 07:01:47;;;;;;;12.43;9.30;;;6.00;99.90;;;;;;5113423;28;20265;-68
2023/03/05 07:04:14;;;;;;;15.70;9.40;;;6.00;99.90;;;;;;5113758;28;20713;-68
2023/03/05 07:06:41;;;;;;;10.63;8.50;;;5.90;99.90;;;;;;5113318;28;20228;-69
2023/03/05 07:09:07;;;;;;;14.43;9.60;;;6.00;99.90;;;;;;5113429;28;20273;-67
2023/03/05 07:11:33;;;;;;;10.33;8.90;;;6.00;99.90;;;;;;5113336;28;20265;-67
2023/03/05 07:14:00;;;;;;;14.60;9.20;;;5.90;99.90;;;;;;5112588;28;20509;-68
2023/03/05 07:16:28;;;;;;;14.00;9.47;;;5.80;99.90;;;;;;5113360;28;20329;-68
2023/03/05 07:18:56;;;;;;;12.37;8.63;;;5.90;99.90;;;;;;5113410;28;20254;-68
2023/03/05 07:21:24;;;;;;;11.23;8.90;;;5.90;99.90;;;;;;5113172;28;20190;-68
2023/03/05 07:23:53;;;;;;;13.50;8.80;;;5.90;99.90;;;;;;5116244;28;20215;-68
2023/03/05 07:26:19;;;;;;;14.23;9.37;;;5.90;99.90;;;;;;5117022;28;20258;-68
2023/03/05 07:28:45;;;;;;;12.93;9.53;;;5.90;99.90;;;;;;5117138;28;20163;-68
2023/03/05 07:31:14;;;;;;;15.80;9.40;;;6.00;99.90;;;;;;5117240;28;20657;-67
2023/03/05 07:33:39;;;;;;;12.50;9.10;;;6.00;99.90;;;;;;5117390;28;20179;-68
2023/03/05 07:36:09;;;;;;;10.77;9.00;;;5.90;99.90;;;;;;5117233;28;20252;-67
2023/03/05 07:38:36;;;;;;;10.63;8.07;;;6.00;99.90;;;;;;5117186;28;20182;-67
2023/03/05 07:41:04;;;;;;;10.00;7.27;;;6.10;99.90;;;;;;5117063;28;20174;-68
2023/03/05 07:43:29;;;;;;;10.23;6.97;;;6.10;99.90;;;;;;5116496;28;20266;-67
2023/03/05 07:45:55;;;;;;;9.33;7.53;;;6.40;99.90;;;;;;5116913;28;20290;-67
2023/03/05 07:48:21;;;;;;;17.00;7.23;;;6.40;99.90;;;;;;5116571;28;20179;-67
2023/03/05 07:50:47;;;;;;;7.77;5.63;;;6.50;99.90;;;;;;5116861;28;20172;-68
2023/03/05 07:53:13;;;;;;;12.03;6.93;;;6.60;99.90;;;;;;5116858;28;20529;-67
2023/03/05 07:55:46;;;;;;;8.33;6.33;;;6.80;99.90;;;;;;5116928;28;20177;-67
2023/03/05 07:58:13;;;;;;;7.93;6.33;;;7.00;99.90;;;;;;5116672;28;20236;-67
2023/03/05 08:00:39;;;;;;;6.97;5.77;;;7.20;99.90;;;;;;5116628;28;20658;-66
2023/03/05 08:03:05;;;;;;;7.50;5.90;;;7.40;99.90;;;;;;5116843;28;20182;-67
2023/03/05 08:05:31;;;;;;;6.20;5.60;;;7.60;99.90;;;;;;5116452;28;20203;-67
2023/03/05 08:07:57;;;;;;;8.70;6.10;;;7.60;99.90;;;;;;5116863;28;20214;-67
2023/03/05 08:10:22;;;;;;;6.03;5.43;;;7.70;99.90;;;;;;5116828;28;20179;-65
2023/03/05 08:12:48;;;;;;;7.73;5.27;;;7.60;99.90;;;;;;5116643;28;20607;-67
2023/03/05 08:15:14;;;;;;;6.00;5.30;;;7.40;99.90;;;;;;5116417;28;20171;-67
2023/03/05 08:17:39;;;;;;;6.03;5.30;;;7.00;99.90;;;;;;5116437;28;20175;-67
2023/03/05 08:20:09;;;;;;;6.50;5.40;;;7.10;99.90;;;;;;5116169;28;20619;-67
2023/03/05 08:22:35;;;;;;;5.97;5.27;;;7.40;99.90;;;;;;5115992;28;20246;-68
2023/03/05 08:25:03;;;;;;;7.27;5.57;;;7.60;99.90;;;;;;5116400;28;20178;-67
2023/03/05 08:27:28;;;;;;;6.17;5.40;;;7.70;99.90;;;;;;5115496;28;20246;-66
2023/03/05 08:29:54;;;;;;;6.10;5.50;;;7.90;99.90;;;;;;5116391;28;20190;-67
2023/03/05 08:32:20;;;;;;;5.90;5.37;;;7.80;99.90;;;;;;5116212;28;20174;-67
2023/03/05 08:34:45;;;;;;;9.57;6.17;;;7.90;99.90;;;;;;5115523;28;20672;-67
2023/03/05 08:37:11;;;;;;;6.63;5.80;;;7.90;99.90;;;;;;5115608;28;20226;-67
2023/03/05 08:39:36;;;;;;;7.70;5.40;;;7.80;99.90;;;;;;5116284;28;20202;-67
2023/03/05 08:42:03;;;;;;;5.63;5.10;;;7.90;99.90;;;;;;5115585;28;20179;-67
2023/03/05 08:44:29;;;;;;;6.57;5.97;;;7.90;99.90;;;;;;5116216;28;20171;-68
2023/03/05 08:46:54;;;;;;;6.33;5.70;;;7.80;99.90;;;;;;5115818;28;20206;-68
2023/03/05 08:49:21;;;;;;;8.57;6.23;;;7.60;99.90;;;;;;5115211;28;20259;-69
2023/03/05 08:51:47;;;;;;;5.90;5.47;;;7.70;99.90;;;;;;5115452;28;20194;-68
2023/03/05 08:54:13;;;;;;;8.93;6.07;;;7.40;99.90;;;;;;5115918;28;20179;-66
2023/03/05 08:56:38;;;;;;;8.30;6.67;;;7.80;99.90;;;;;;5115343;28;20171;-68
2023/03/05 08:59:04;;;;;;;10.40;7.13;;;7.70;99.90;;;;;;5115223;28;20492;-67
2023/03/05 09:01:31;;;;;;;9.73;7.00;;;7.70;99.90;;;;;;5115679;28;20198;-67
2023/03/05 09:03:58;;;;;;;7.37;6.47;;;7.60;99.90;;;;;;5115553;28;20175;-67
2023/03/05 09:06:24;;;;;;;8.70;7.33;;;7.60;99.90;;;;;;5115220;28;20209;-68
2023/03/05 09:08:50;;;;;;;8.37;7.37;;;7.70;99.90;;;;;;5115508;28;20175;-68
2023/03/05 09:11:16;;;;;;;8.70;7.80;;;7.80;99.90;;;;;;5115057;28;20512;-68
2023/03/05 09:13:41;;;;;;;9.80;7.07;;;7.80;99.90;;;;;;5115235;28;20266;-68
2023/03/05 09:16:11;;;;;;;7.83;7.13;;;7.80;99.90;;;;;;5114778;28;20167;-68
2023/03/05 09:18:38;;;;;;;7.63;6.63;;;7.80;99.90;;;;;;5115469;28;20179;-68
2023/03/05 09:21:09;;;;;;;6.67;5.73;;;7.80;99.90;;;;;;5115002;28;20166;-68
2023/03/05 09:23:35;;;;;;;6.50;5.83;;;7.70;99.90;;;;;;5114595;28;20222;-68
2023/03/05 09:26:01;;;;;;;6.37;5.77;;;7.80;99.90;;;;;;5114749;28;20210;-69
2023/03/05 09:28:27;;;;;;;6.33;5.60;;;7.80;99.90;;;;;;5115444;28;20164;-68
2023/03/05 09:30:52;;;;;;;5.67;5.17;;;7.80;99.90;;;;;;5114952;28;20502;-67
2023/03/05 09:33:18;;;;;;;5.40;4.90;;;7.90;99.90;;;;;;5114971;28;20213;-68
2023/03/05 09:35:44;;;;;;;8.07;6.30;;;7.70;99.90;;;;;;5114979;28;20171;-69
2023/03/05 09:38:09;;;;;;;7.80;6.83;;;7.70;99.90;;;;;;5113728;28;20301;-68
2023/03/05 09:40:50;;;;;;;7.50;6.70;;;7.80;99.90;;;;;;5114872;28;20501;-68
2023/03/05 09:43:22;;;;;;;7.33;6.63;;;7.70;99.90;;;;;;5114840;28;20216;-67
2023/03/05 09:46:16;;;;;;;7.17;6.47;;;7.60;99.90;;;;;;5113753;28;20204;-68
2023/03/05 09:48:55;;;;;;;5.60;5.10;;;7.50;99.90;;;;;;5114432;28;20167;-68
2023/03/05 09:51:24;;;;;;;5.70;4.97;;;7.30;99.90;;;;;;5114899;28;20170;-68
2023/03/05 09:54:10;;;;;;;5.60;5.03;;;7.40;99.90;;;;;;5114116;28;20228;-68
2023/03/05 09:56:40;;;;;;;6.63;4.90;;;7.40;99.90;;;;;;5096598;28;20187;-67
2023/03/05 09:59:09;;;;;;;5.33;4.83;;;7.40;99.90;;;;;;5114162;28;20200;-69
2023/03/05 10:01:38;;;;;;;5.87;4.43;;;7.30;99.90;;;;;;5114422;28;20191;-68
2023/03/05 10:04:12;;;;;;;5.13;4.63;;;7.30;99.90;;;;;;5096015;28;20259;-68
2023/03/05 10:06:42;;;;;;;6.07;5.10;;;7.30;99.90;;;;;;5114096;28;20211;-68
2023/03/05 10:09:13;;;;;;;6.47;5.30;;;7.50;99.90;;;;;;5113893;28;20168;-69
2023/03/05 10:11:42;;;;;;;7.07;6.37;;;7.60;99.90;;;;;;5114128;28;20171;-68
2023/03/05 10:14:14;;;;;;;7.40;6.70;;;7.50;99.90;;;;;;5114507;28;20171;-69
2023/03/05 10:16:43;;;;;;;7.03;6.07;;;7.50;99.90;;;;;;5113907;28;20179;-68
2023/03/05 10:20:03;;;;;;;6.23;5.23;;;7.50;99.90;;;;;;5114036;28;20198;-68
2023/03/05 10:22:34;;;;;;;5.57;4.00;;;7.20;99.90;;;;;;5094977;28;20225;-67
2023/03/05 10:25:05;;;;;;;5.00;4.17;;;7.30;99.90;;;;;;5113822;28;20537;-67
2023/03/05 10:27:47;;;;;;;4.17;3.77;;;7.40;99.90;;;;;;5113695;28;20207;-68
2023/03/05 10:30:53;;;;;;;4.27;3.87;;;7.40;99.90;;;;;;5113993;28;20561;-68
2023/03/05 10:33:48;;;;;;;6.00;4.07;;;7.40;99.90;;;;;;5113748;28;20175;-67
2023/03/05 10:36:19;;;;;;;3.93;3.60;;;7.50;99.90;;;;;;5113454;28;20250;-66
2023/03/05 10:39:03;;;;;;;7.70;3.57;;;7.60;99.90;;;;;;5113568;28;20171;-67
2023/03/05 10:41:52;;;;;;;4.37;3.60;;;7.70;99.90;;;;;;5113836;28;20266;-69
2023/03/05 10:44:50;;;;;;;3.07;2.70;;;7.80;99.90;;;;;;5113798;28;20254;-68
2023/03/05 10:47:38;;;;;;;3.97;3.20;;;8.00;99.90;;;;;;5113492;28;20218;-67
2023/03/05 10:50:17;;;;;;;3.30;3.00;;;7.90;99.90;;;;;;5113133;28;20207;-67
2023/03/05 10:52:45;;;;;;;2.87;2.67;;;8.10;99.90;;;;;;5113000;28;20232;-69
2023/03/05 10:55:20;;;;;;;2.83;2.63;;;8.10;99.90;;;;;;5113518;28;20171;-66
2023/03/05 10:57:47;;;;;;;3.00;2.70;;;8.20;99.90;;;;;;5112846;28;20167;-68
2023/03/05 11:00:24;;;;;;;3.30;3.10;;;8.30;99.90;;;;;;5113114;28;20176;-68
2023/03/05 11:03:02;;;;;;;5.23;4.57;;;8.40;99.90;;;;;;5113568;28;20625;-69
2023/03/05 11:05:45;;;;;;;4.20;3.80;;;8.30;99.90;;;;;;5113008;28;20228;-68
2023/03/05 11:08:30;;;;;;;5.57;4.90;;;8.30;99.90;;;;;;5113263;28;20183;-68
2023/03/05 11:11:16;;;;;;;5.60;3.57;;;8.40;99.90;;;;;;5113067;28;20255;-68
2023/03/05 11:13:53;;;;;;;4.23;3.83;;;8.60;99.90;;;;;;5113162;28;20206;-69
2023/03/05 11:16:24;;;;;;;5.20;4.20;;;8.50;99.90;;;;;;5112599;28;20186;-68
2023/03/05 11:18:49;;;;;;;6.00;4.57;;;8.50;99.90;;;;;;5112671;28;20614;-68
2023/03/05 11:21:28;;;;;;;7.63;6.83;;;8.70;99.90;;;;;;5112540;28;20180;-68
2023/03/05 11:24:15;;;;;;;6.37;5.37;;;8.90;99.90;;;;;;5112722;28;20218;-69
2023/03/05 11:26:55;;;;;;;3.70;3.40;;;9.00;99.90;;;;;;5113157;28;20654;-67
2023/03/05 11:29:26;;;;;;;6.97;6.33;;;9.00;99.90;;;;;;5113303;28;20214;-68
2023/03/05 11:31:52;;;;;;;3.47;3.17;;;9.10;99.90;;;;;;5112452;28;20179;-67
2023/03/05 11:34:18;;;;;;;3.77;3.03;;;9.30;99.90;;;;;;5112940;28;20179;-68
2023/03/05 11:36:52;;;;;;;5.23;3.93;;;9.50;99.90;;;;;;5113318;28;20175;-68
2023/03/05 11:39:23;;;;;;;4.03;3.17;;;9.60;99.90;;;;;;5112279;28;20171;-68
2023/03/05 11:41:56;;;;;;;3.73;3.33;;;9.50;99.90;;;;;;5113268;28;20171;-68
2023/03/05 11:44:38;;;;;;;3.37;3.17;;;9.70;99.90;;;;;;5112418;28;20170;-67
2023/03/05 11:47:23;;;;;;;2.97;2.77;;;10.00;99.90;;;;;;5112615;28;20206;-68
2023/03/05 11:49:53;;;;;;;3.47;3.07;;;10.10;99.90;;;;;;5112242;28;20202;-68
2023/03/05 11:52:29;;;;;;;3.23;3.03;;;9.90;99.90;;;;;;5113268;28;20258;-69
2023/03/05 11:54:56;;;;;;;5.77;5.20;;;10.00;99.90;;;;;;5113197;28;20167;-68
2023/03/05 11:57:23;;;;;;;5.67;4.13;;;10.20;99.90;;;;;;5112353;28;20175;-69
2023/03/05 11:59:51;;;;;;;6.93;4.27;;;10.10;99.90;;;;;;5112291;28;20171;-69
2023/03/05 12:02:20;;;;;;;10.30;5.10;;;10.10;99.90;;;;;;5112895;28;20244;-68
2023/03/05 12:04:48;;;;;;;5.90;4.80;;;9.90;99.90;;;;;;5112301;28;20167;-69
2023/03/05 12:07:18;;;;;;;5.47;4.47;;;9.60;99.90;;;;;;5112740;28;20214;-68
2023/03/05 12:09:48;;;;;;;6.30;5.70;;;9.70;99.90;;;;;;5115187;28;20175;-70
2023/03/05 12:12:35;;;;;;;11.17;6.33;;;9.60;99.90;;;;;;5116201;28;20216;-69
2023/03/05 12:15:18;;;;;;;8.20;5.97;;;9.60;99.90;;;;;;5116498;28;20175;-69
2023/03/05 12:18:10;;;;;;;6.70;6.10;;;9.50;99.90;;;;;;5115775;28;20198;-69
2023/03/05 12:20:53;;;;;;;6.83;6.13;;;9.70;99.90;;;;;;5116177;28;20202;-69
2023/03/05 12:23:21;;;;;;;8.87;8.07;;;9.70;99.90;;;;;;5116387;28;20210;-69
2023/03/05 12:25:56;;;;;;;8.13;7.43;;;9.50;99.90;;;;;;5115896;28;20175;-68
2023/03/05 12:28:28;;;;;;;9.37;8.37;;;9.50;99.90;;;;;;5116019;28;20193;-70
2023/03/05 12:30:56;;;;;;;9.00;8.20;;;9.40;99.90;;;;;;5116395;28;20175;-69
2023/03/05 12:33:31;;;;;;;9.00;8.10;;;9.30;99.90;;;;;;5115395;28;20599;-69
2023/03/05 12:36:21;;;;;;;8.53;7.77;;;9.10;99.90;;;;;;5116085;28;20178;-68
2023/03/05 12:38:50;;;;;;;12.07;8.87;;;8.60;99.90;;;;;;5116011;28;20167;-69
2023/03/05 12:41:22;;;;;;;8.97;8.07;;;8.50;99.90;;;;;;5115356;28;20171;-68
2023/03/05 12:44:06;;;;;;;8.47;7.73;;;8.30;99.90;;;;;;5115610;28;20163;-67
2023/03/05 12:46:42;;;;;;;11.20;8.70;;;8.10;99.90;;;;;;5115430;28;20199;-67
2023/03/05 12:49:21;;;;;;;8.80;8.00;;;8.10;99.90;;;;;;5115267;28;20292;-69
2023/03/05 12:51:49;;;;;;;14.13;9.63;;;8.00;99.90;;;;;;5115782;28;20187;-68
2023/03/05 12:54:20;;;;;;;6.63;6.03;;;7.80;99.90;;;;;;5115736;28;20179;-68
2023/03/05 12:56:46;;;;;;;8.67;6.10;;;7.70;99.90;;;;;;5115507;28;20258;-68
2023/03/05 12:59:15;;;;;;;7.33;5.40;;;7.90;99.90;;;;;;5115358;28;20186;-68
2023/03/05 13:01:45;;;;;;;6.10;4.57;;;8.10;99.90;;;;;;5114676;28;20560;-68